Hovedside
METAR-TAF:

METAR-TAF

Lufthavner :

Molde lufthavn. Årø

Molde, Norge

breddegrad: 62-45N, lengdegrad: 007-16E, høyde over havet: 0 m

Gjeldene værobservasjon

Denne rapporten ble laget for 42 minutter siden, klokken 00:50 UTC
Vind 32 kt fra Sørvest med vindkast opp mot 46 kt, skiftende mellom Sør-sørvest og Vest
Temperatur 5°C
Luftfuktighet 81%
Trykk 1002 hPa
Sikt 10 km eller mer
regnbyger

METAR: ENML 230050Z AUTO 23032G46KT 200V260 9999NDV SHRA NCD 05/02 Q1002

Tid: 02:32 (01:32 UTC)

Varsel

Denne rapporten ble laget for 8 timer og 32 minutter siden, klokken 17:00 UTC
Varsel gyldig fra 22. klokken 18 UTC til 22. klokken 22 UTC
Vind 12 kt fra Sør-sørvest
Sikt 10 km eller mer
Få skyer i en høyde av 2500 ft
Brutte skyer i en høyde av 5000 ft
lett regn
Midlertidig
fra 22. klokken 18 UTC til 22. klokken 22 UTC
Vind 18 kt fra Sørvest med vindkast opp mot 30 kt
Brutte skyer i en høyde av 1400 ft
regn

TAF: ENML 221700Z 2218/2222 21012KT 9999 -RA FEW025 BKN050 TEMPO 2218/2222 23018G30KT RA BKN014

Værobservasjoner og værvarsel for over 4000 flyplasser (METAR- og TAF-rapporter).

Tilgjengelige stasjoner er representert av de røde og gule prikkene på kartet.

Hold musepekeren over prikken for å se navnet på stasjonen.

Klikk så for å se værobservasjoner og -varsler.

For å forandre kartet kan du klikke på den grønne knappen med svart kryss for å zoome inn, på den grønne knappen med strek for å zoome ut, eller på de grønne pilene for å se tilstøtende kart.


METAR-TAF: